Impacts METAR Board INFO
IDs:

KMCO - Orlando Intl, FL, US

Updated at: 0506 UTC 16 Dec 2017
Potential Impact None Slight Moderate High
Time15/17Z 15/18Z 15/19Z 15/20Z 15/21Z 15/22Z 15/23Z 16/00Z 16/01Z 16/02Z 16/03Z 16/04Z 16/05Z
VIS10 10 10 10 10 10 10 10 10 10 10 10 10
CIG60 60 300 300 300 300 300 300 -- -- -- -- --
CoverBKNBKNBKNBKNBKNBKNBKNBKNFEWCLRCLRFEWCLR
FltCatVFRVFRVFRVFRVFRVFRVFRVFRVFRVFRVFRVFRVFR
WX--------------------------
WDir2102302202402602802903003203102900190
WSpd10 11 14 13 12 6 7 6 5 5 4 0 3
WGst-- 17 20 -- -- -- -- -- -- -- -- -- --
Raw hourly METARs
KMCO 151653Z 21010KT 10SM FEW038 BKN060 BKN300 23/12 A3008 RMK AO2 SLP185 T02280122
KMCO 151753Z COR 23011G17KT 10SM SCT039 BKN060 BKN300 23/14 A3006 RMK AO2 SLP177 T02330144 10239 20150 58014
KMCO 151853Z 22014G20KT 10SM SCT043 BKN300 24/14 A3004 RMK AO2 SLP171 T02440139
KMCO 151953Z 24013KT 10SM SCT041 BKN300 24/14 A3005 RMK AO2 SLP172 T02440144
KMCO 152053Z 26012KT 10SM FEW050 BKN300 24/13 A3004 RMK AO2 SLP172 T02390128 56005
KMCO 152153Z 28006KT 10SM FEW050 BKN300 23/12 A3006 RMK AO2 SLP179 T02280122
KMCO 152253Z 29007KT 10SM FEW100 BKN300 21/10 A3009 RMK AO2 SLP188 T02110100
KMCO 152353Z 30006KT 10SM BKN300 20/10 A3012 RMK AO2 SLP197 T02000100 10250 20200 53025
KMCO 160053Z 32005KT 10SM FEW300 18/11 A3013 RMK AO2 SLP202 T01830106
KMCO 160153Z 31005KT 10SM CLR 17/11 A3015 RMK AO2 SLP208 T01670106
KMCO 160253Z 29004KT 10SM CLR 16/11 A3017 RMK AO2 SLP213 T01610111 52017
KMCO 160353Z 00000KT 10SM FEW004 15/12 A3017 RMK AO2 SLP214 FU FEW004 T01500117
KMCO 160453Z 19003KT 10SM CLR 13/11 A3018 RMK AO2 SLP216 T01280111 402500128